createdAt,value
2023-04-04T00:00:18.663Z,1.00
2023-04-04T00:03:07.528Z,1.00
2023-04-04T00:05:56.601Z,1.00
2023-04-04T00:08:46.724Z,1.00
2023-04-04T00:11:35.528Z,1.00
2023-04-04T00:14:24.281Z,1.00
2023-04-04T00:17:13.059Z,1.00
2023-04-04T00:20:01.971Z,1.00
2023-04-04T00:22:50.682Z,1.00
2023-04-04T00:25:40.885Z,1.00
2023-04-04T00:28:29.595Z,1.00
2023-04-04T00:31:18.386Z,1.00
2023-04-04T00:34:07.169Z,1.00
2023-04-04T00:36:56.189Z,1.00
2023-04-04T00:39:44.852Z,1.80
2023-04-04T00:42:36.203Z,3.00
2023-04-04T00:45:25.236Z,1.00
2023-04-04T00:48:14.462Z,1.10
2023-04-04T00:51:03.181Z,1.00
2023-04-04T00:53:52.600Z,1.00
2023-04-04T00:56:41.901Z,1.00
2023-04-04T00:59:33.430Z,1.80
2023-04-04T01:02:22.413Z,2.00
2023-04-04T01:05:12.640Z,2.00
2023-04-04T01:08:02.955Z,2.30
2023-04-04T01:10:52.066Z,1.80
2023-04-04T01:13:43.260Z,2.40
2023-04-04T01:16:33.544Z,2.40
2023-04-04T01:19:27.726Z,3.00
2023-04-04T01:22:17.252Z,2.80
2023-04-04T01:25:08.219Z,2.60
2023-04-04T01:27:58.509Z,3.10
2023-04-04T01:30:47.420Z,3.60
2023-04-04T01:33:42.010Z,3.50
2023-04-04T01:36:37.141Z,4.20
2023-04-04T01:39:29.486Z,4.50
2023-04-04T01:42:20.162Z,4.50
2023-04-04T01:45:12.612Z,5.60
2023-04-04T01:48:01.555Z,6.40
2023-04-04T01:50:50.235Z,7.30
2023-04-04T01:53:39.002Z,8.50
2023-04-04T01:56:28.058Z,9.00
2023-04-04T01:59:16.879Z,8.90
2023-04-04T02:02:07.098Z,9.00
2023-04-04T02:04:55.770Z,8.20
2023-04-04T02:07:49.005Z,8.60
2023-04-04T02:10:37.847Z,8.90
2023-04-04T02:13:27.178Z,9.10
2023-04-04T02:16:15.924Z,8.40
2023-04-04T02:19:06.264Z,7.90
2023-04-04T02:21:56.555Z,6.80
2023-04-04T02:24:45.265Z,6.80
2023-04-04T02:27:34.209Z,6.80
2023-04-04T02:30:22.934Z,7.10
2023-04-04T02:33:12.206Z,7.40
2023-04-04T02:36:02.459Z,7.70
2023-04-04T02:38:51.199Z,8.40
2023-04-04T02:41:39.936Z,7.90
2023-04-04T02:44:28.978Z,8.60
2023-04-04T02:47:18.077Z,7.80
2023-04-04T02:50:08.159Z,8.10
2023-04-04T02:53:02.541Z,7.90
2023-04-04T02:55:51.200Z,7.40
2023-04-04T02:58:41.599Z,7.00
2023-04-04T03:01:31.476Z,6.90
2023-04-04T03:04:20.592Z,6.90
2023-04-04T03:07:09.596Z,6.40
2023-04-04T03:09:59.700Z,6.10
2023-04-04T03:12:48.425Z,6.50
2023-04-04T03:15:37.093Z,7.10
2023-04-04T03:18:25.915Z,6.60
2023-04-04T03:21:14.771Z,6.60
2023-04-04T03:24:03.635Z,6.70
2023-04-04T03:26:53.767Z,6.70
2023-04-04T03:29:42.481Z,6.70
2023-04-04T03:32:31.675Z,7.10
2023-04-04T03:35:20.347Z,7.30
2023-04-04T03:38:09.505Z,7.60
2023-04-04T03:41:04.507Z,8.90
2023-04-04T03:43:54.667Z,10.20
2023-04-04T03:46:43.371Z,11.20
2023-04-04T03:49:33.027Z,10.80
2023-04-04T03:52:21.661Z,11.30
2023-04-04T03:55:11.430Z,10.70
2023-04-04T03:58:00.163Z,10.90
2023-04-04T04:00:50.354Z,9.30
2023-04-04T04:03:39.042Z,10.00
2023-04-04T04:06:27.759Z,9.80
2023-04-04T04:09:16.664Z,9.50
2023-04-04T04:12:05.578Z,9.30
2023-04-04T04:14:54.312Z,9.30
2023-04-04T04:17:44.370Z,9.60
2023-04-04T04:20:33.074Z,10.30
2023-04-04T04:23:21.787Z,10.50
2023-04-04T04:26:10.572Z,10.40
2023-04-04T04:28:59.354Z,9.70
2023-04-04T04:31:48.140Z,9.90
2023-04-04T04:34:38.350Z,9.60
2023-04-04T04:37:27.271Z,10.40
2023-04-04T04:40:16.586Z,10.80
2023-04-04T04:43:05.299Z,11.00
2023-04-04T04:45:54.020Z,11.20
2023-04-04T04:48:42.857Z,11.10
2023-04-04T04:51:33.002Z,10.70
2023-04-04T04:54:21.714Z,11.00
2023-04-04T04:57:10.386Z,11.20
2023-04-04T04:59:59.130Z,11.40
2023-04-04T05:02:47.927Z,11.30
2023-04-04T05:05:36.902Z,11.40
2023-04-04T05:08:27.357Z,11.50
2023-04-04T05:11:16.087Z,11.70
2023-04-04T05:14:04.799Z,12.30
2023-04-04T05:16:53.710Z,12.50
2023-04-04T05:19:42.576Z,12.80
2023-04-04T05:22:31.254Z,12.90
2023-04-04T05:25:21.615Z,12.40
2023-04-04T05:28:10.391Z,12.10
2023-04-04T05:30:59.204Z,10.70
2023-04-04T05:33:47.919Z,10.70
2023-04-04T05:36:36.888Z,10.30
2023-04-04T05:39:25.726Z,9.30
2023-04-04T05:42:15.788Z,9.00
2023-04-04T05:45:04.932Z,7.60
2023-04-04T05:47:53.955Z,5.80
2023-04-04T05:50:46.068Z,5.50
2023-04-04T05:53:34.974Z,4.90
2023-04-04T05:56:25.038Z,5.00
2023-04-04T05:59:15.277Z,4.60
2023-04-04T06:02:04.029Z,4.20
2023-04-04T06:04:52.768Z,2.70
2023-04-04T06:07:41.802Z,1.80
2023-04-04T06:10:30.516Z,1.00
2023-04-04T06:13:19.160Z,1.00
2023-04-04T06:16:09.566Z,1.00
2023-04-04T06:18:58.305Z,1.00
2023-04-04T06:21:47.024Z,1.00
2023-04-04T06:24:37.414Z,1.00
2023-04-04T06:27:26.289Z,1.00
2023-04-04T06:30:17.170Z,1.00
2023-04-04T06:33:07.476Z,1.00
2023-04-04T06:35:56.197Z,1.00
2023-04-04T06:38:44.936Z,1.00
2023-04-04T06:41:33.603Z,1.00
2023-04-04T06:44:24.159Z,1.00
2023-04-04T06:47:12.782Z,1.00
2023-04-04T06:50:03.059Z,1.00
2023-04-04T06:52:52.813Z,1.00
2023-04-04T06:55:41.770Z,1.00
2023-04-04T06:58:30.847Z,1.00
2023-04-04T07:01:19.613Z,1.00
2023-04-04T07:04:08.329Z,1.00
2023-04-04T07:06:58.390Z,1.00
2023-04-04T07:09:47.254Z,1.00
2023-04-04T07:12:35.959Z,1.00
2023-04-04T07:15:24.665Z,1.00
2023-04-04T07:18:13.710Z,1.00
2023-04-04T07:21:02.436Z,1.00
2023-04-04T07:23:52.535Z,1.00
2023-04-04T07:26:41.275Z,1.00
2023-04-04T07:29:29.984Z,1.00
2023-04-04T07:32:18.695Z,1.00
2023-04-04T07:35:08.177Z,1.00
2023-04-04T07:37:58.098Z,1.00
2023-04-04T07:40:50.162Z,1.00
2023-04-04T07:43:39.097Z,1.00
2023-04-04T07:46:28.014Z,1.00
2023-04-04T07:49:16.857Z,1.00
2023-04-04T07:52:06.428Z,1.00
2023-04-04T07:54:55.404Z,1.00
2023-04-04T07:57:45.482Z,1.00
2023-04-04T08:00:34.294Z,1.00
2023-04-04T08:03:24.229Z,1.00
2023-04-04T08:06:13.087Z,1.00
2023-04-04T08:09:02.006Z,1.00
2023-04-04T08:11:51.031Z,1.00
2023-04-04T08:14:41.482Z,1.00
2023-04-04T08:17:30.188Z,1.00
2023-04-04T08:20:18.944Z,1.00
2023-04-04T08:23:08.315Z,1.00
2023-04-04T08:25:59.325Z,1.00
2023-04-04T08:28:48.025Z,1.00
2023-04-04T08:31:39.561Z,1.00
2023-04-04T08:34:28.704Z,1.00
2023-04-04T08:37:17.569Z,1.00
2023-04-04T08:40:07.251Z,1.00
2023-04-04T08:42:56.049Z,1.00
2023-04-04T08:45:46.298Z,1.00
2023-04-04T08:48:38.552Z,1.00
2023-04-04T08:51:27.963Z,1.00
2023-04-04T08:57:25.922Z,1.00
2023-04-04T09:00:18.143Z,1.00
2023-04-04T09:03:11.516Z,1.00
2023-04-04T09:06:02.640Z,1.00
2023-04-04T09:08:54.049Z,1.00
2023-04-04T09:11:43.094Z,1.00
2023-04-04T09:14:32.229Z,1.00
2023-04-04T09:17:21.058Z,1.00
2023-04-04T09:20:37.698Z,1.00
2023-04-04T09:23:28.060Z,1.00
2023-04-04T09:26:17.204Z,1.00
2023-04-04T09:29:09.384Z,1.00
2023-04-04T09:31:58.278Z,1.00
2023-04-04T09:34:47.295Z,1.00
2023-04-04T09:37:36.064Z,1.00
2023-04-04T09:40:29.152Z,1.00
2023-04-04T09:43:18.389Z,1.00
2023-04-04T09:46:09.040Z,1.00
2023-04-04T09:48:58.616Z,1.00
2023-04-04T09:51:50.124Z,1.00
2023-04-04T09:54:48.006Z,1.00
2023-04-04T10:06:51.792Z,1.00
2023-04-04T10:09:41.243Z,1.00
2023-04-04T10:12:31.829Z,1.00
2023-04-04T10:15:20.900Z,1.00
2023-04-04T10:18:10.144Z,1.00
2023-04-04T10:21:12.127Z,1.00
2023-04-04T10:24:09.487Z,1.00
2023-04-04T10:27:00.675Z,1.00
2023-04-04T10:29:49.347Z,1.00
2023-04-04T10:32:45.949Z,1.00
2023-04-04T10:35:38.346Z,1.00
2023-04-04T10:38:31.262Z,1.00
2023-04-04T10:41:21.722Z,1.00
2023-04-04T10:44:18.834Z,1.00
2023-04-04T10:47:15.880Z,1.00
2023-04-04T10:50:07.322Z,1.00
2023-04-04T10:52:57.883Z,1.00
2023-04-04T10:55:47.118Z,1.00
2023-04-04T10:58:42.667Z,1.00
2023-04-04T11:01:52.538Z,1.00
2023-04-04T11:04:42.713Z,1.00
2023-04-04T11:07:33.437Z,1.00
2023-04-04T11:10:26.085Z,1.00
2023-04-04T11:13:17.694Z,1.00
2023-04-04T11:16:09.996Z,1.00
2023-04-04T11:19:01.593Z,1.00
2023-04-04T11:21:52.537Z,1.00
2023-04-04T11:24:46.151Z,1.00
2023-04-04T11:27:36.008Z,1.00
2023-04-04T11:30:25.161Z,1.00
2023-04-04T11:33:28.745Z,1.00
2023-04-04T11:36:26.109Z,1.00
2023-04-04T11:39:16.975Z,1.00
2023-04-04T11:42:09.114Z,1.00
2023-04-04T11:45:05.118Z,1.00
2023-04-04T11:47:54.066Z,1.00
2023-04-04T11:50:44.750Z,1.00
2023-04-04T11:53:34.281Z,1.00
2023-04-04T11:56:23.907Z,1.00
2023-04-04T11:59:19.266Z,1.00
2023-04-04T12:02:08.282Z,1.00
2023-04-04T12:08:27.749Z,1.00
2023-04-04T12:16:34.301Z,1.00
2023-04-04T12:54:59.188Z,1.00
2023-04-04T12:57:56.299Z,1.00
2023-04-04T13:00:51.745Z,1.00
2023-04-04T13:03:40.874Z,1.00
2023-04-04T13:06:32.395Z,1.00
2023-04-04T13:10:13.941Z,1.00
2023-04-04T13:24:12.786Z,1.00
2023-04-04T13:41:56.458Z,1.00
2023-04-04T13:44:45.106Z,1.00
2023-04-04T13:47:33.791Z,1.00
2023-04-04T13:50:22.953Z,1.00
2023-04-04T13:53:27.466Z,1.00
2023-04-04T13:56:19.012Z,1.00
2023-04-04T13:59:09.553Z,1.00
2023-04-04T14:01:58.254Z,1.00
2023-04-04T14:04:46.997Z,1.00
2023-04-04T14:07:35.866Z,1.00
2023-04-04T14:10:24.558Z,1.00
2023-04-04T14:13:13.285Z,1.00
2023-04-04T14:16:03.488Z,1.00
2023-04-04T14:18:52.252Z,1.00
2023-04-04T14:21:41.021Z,1.00
2023-04-04T14:24:29.717Z,1.00
2023-04-04T14:27:18.373Z,1.00
2023-04-04T14:30:08.385Z,1.00
2023-04-04T14:32:58.445Z,1.00
2023-04-04T14:35:47.154Z,1.00
2023-04-04T14:38:36.029Z,1.00
2023-04-04T14:41:24.845Z,1.00
2023-04-04T14:44:13.534Z,1.00
2023-04-04T14:47:02.341Z,1.00
2023-04-04T14:49:54.239Z,1.00
2023-04-04T14:52:43.629Z,1.00
2023-04-04T14:55:32.551Z,1.00
2023-04-04T14:59:09.896Z,1.00
2023-04-04T15:01:59.230Z,1.00
2023-04-04T15:04:48.377Z,1.00
2023-04-04T15:07:38.690Z,1.00
2023-04-04T15:10:27.682Z,1.00
2023-04-04T15:13:16.897Z,1.00
2023-04-04T15:16:06.293Z,1.00
2023-04-04T15:18:55.637Z,1.00
2023-04-04T15:21:44.706Z,1.00
2023-04-04T15:24:35.074Z,1.00
2023-04-04T15:27:24.028Z,1.00
2023-04-04T15:30:14.982Z,1.00
2023-04-04T15:33:04.226Z,1.00
2023-04-04T15:35:53.344Z,1.00
2023-04-04T15:38:42.280Z,1.00
2023-04-04T15:41:33.097Z,1.00
2023-04-04T15:44:21.813Z,1.00
2023-04-04T15:47:10.646Z,1.00
2023-04-04T15:49:59.317Z,1.00
2023-04-04T15:52:48.004Z,1.00
2023-04-04T15:55:36.770Z,1.00
2023-04-04T15:58:27.485Z,1.00
2023-04-04T16:01:16.305Z,1.00
2023-04-04T16:04:05.028Z,1.00
2023-04-04T16:06:53.713Z,1.00
2023-04-04T16:09:43.181Z,1.00
2023-04-04T16:12:31.867Z,1.00
2023-04-04T16:15:22.051Z,1.00
2023-04-04T16:18:10.862Z,1.00
2023-04-04T16:21:04.732Z,1.00
2023-04-04T16:23:53.392Z,1.00
2023-04-04T16:26:47.545Z,1.00
2023-04-04T16:29:36.453Z,1.00
2023-04-04T16:32:26.539Z,1.00
2023-04-04T16:35:15.710Z,1.00
2023-04-04T16:38:04.396Z,1.00
2023-04-04T16:40:53.619Z,1.00
2023-04-04T16:43:43.143Z,1.00
2023-04-04T16:46:32.419Z,1.00
2023-04-04T16:49:24.357Z,1.00
2023-04-04T16:52:16.416Z,1.00
2023-04-04T16:55:05.492Z,1.00
2023-04-04T16:57:54.203Z,1.00
2023-04-04T17:00:43.466Z,1.00
2023-04-04T17:03:32.537Z,1.00
2023-04-04T17:06:22.687Z,1.00
2023-04-04T17:09:11.393Z,1.00
2023-04-04T17:12:06.598Z,1.00
2023-04-04T17:14:55.236Z,1.00
2023-04-04T17:17:43.950Z,1.00
2023-04-04T17:20:34.318Z,1.00
2023-04-04T17:23:24.758Z,1.00
2023-04-04T17:26:13.566Z,1.00
2023-04-04T17:29:02.199Z,1.00
2023-04-04T17:31:51.053Z,1.00
2023-04-04T17:34:39.700Z,1.00
2023-04-04T17:37:29.132Z,1.00
2023-04-04T17:40:19.614Z,1.00
2023-04-04T17:43:08.225Z,1.00
2023-04-04T17:45:56.960Z,1.00
2023-04-04T17:48:45.653Z,1.00
2023-04-04T17:51:35.230Z,1.00
2023-04-04T17:54:26.001Z,1.00
2023-04-04T17:57:16.366Z,1.00
2023-04-04T18:00:05.451Z,1.00
2023-04-04T18:02:54.254Z,1.00
2023-04-04T18:05:43.527Z,1.00
2023-04-04T18:08:32.301Z,1.00
2023-04-04T18:11:21.000Z,1.00
2023-04-04T18:14:11.232Z,1.00
2023-04-04T18:17:00.030Z,1.00
2023-04-04T18:19:48.681Z,1.00
2023-04-04T18:22:37.448Z,1.00
2023-04-04T18:25:26.459Z,1.00
2023-04-04T18:28:15.112Z,1.00
2023-04-04T18:31:05.288Z,1.00
2023-04-04T18:33:55.517Z,1.00
2023-04-04T18:36:47.335Z,1.00
2023-04-04T18:39:37.850Z,1.00
2023-04-04T18:42:26.753Z,1.00
2023-04-04T18:45:15.822Z,1.00
2023-04-04T18:48:06.355Z,1.00
2023-04-04T18:53:30.993Z,1.00
2023-04-04T18:56:19.903Z,1.00
2023-04-04T18:59:08.697Z,1.00
2023-04-04T19:02:01.754Z,1.00
2023-04-04T19:04:55.391Z,1.00
2023-04-04T19:08:03.159Z,1.00
2023-04-04T19:10:51.947Z,1.00
2023-04-04T19:13:40.645Z,1.00
2023-04-04T19:16:29.496Z,1.00
2023-04-04T19:19:18.718Z,1.00
2023-04-04T19:22:09.138Z,1.00
2023-04-04T19:24:57.805Z,1.00
2023-04-04T19:27:46.720Z,1.00
2023-04-04T19:30:44.097Z,1.00
2023-04-04T19:33:34.555Z,1.00
2023-04-04T19:36:23.700Z,1.00
2023-04-04T19:39:17.827Z,1.00
2023-04-04T19:42:08.871Z,1.00
2023-04-04T19:44:57.504Z,1.00
2023-04-04T19:47:46.307Z,1.00
2023-04-04T19:50:38.135Z,1.00
2023-04-04T19:53:28.314Z,1.00
2023-04-04T19:56:20.083Z,1.00
2023-04-04T19:59:10.706Z,1.00
2023-04-04T20:02:00.781Z,1.00
2023-04-04T20:04:49.783Z,1.00
2023-04-04T20:07:38.702Z,1.00
2023-04-04T20:10:38.856Z,1.00
2023-04-04T20:13:29.559Z,1.00
2023-04-04T20:16:18.940Z,1.00
2023-04-04T20:19:08.472Z,1.00
2023-04-04T20:21:57.802Z,1.00
2023-04-04T20:24:48.339Z,1.00
2023-04-04T20:27:37.589Z,1.00
2023-04-04T20:30:28.283Z,1.00
2023-04-04T20:33:37.637Z,1.00
2023-04-04T20:36:34.425Z,1.00
2023-04-04T20:39:42.318Z,1.00
2023-04-04T20:42:40.500Z,1.00
2023-04-04T20:45:56.061Z,1.00
2023-04-04T20:48:47.705Z,1.00
2023-04-04T20:51:38.271Z,1.00
2023-04-04T20:54:28.402Z,1.00
2023-04-04T20:57:23.982Z,1.00
2023-04-04T21:00:40.797Z,1.00
2023-04-04T21:03:37.899Z,1.00
2023-04-04T21:06:31.373Z,1.00
2023-04-04T21:09:21.473Z,1.00
2023-04-04T21:12:10.291Z,1.00
2023-04-04T21:14:59.271Z,1.00
2023-04-04T21:17:48.148Z,1.00
2023-04-04T21:21:10.046Z,1.00
2023-04-04T21:24:00.100Z,1.00
2023-04-04T21:26:50.310Z,1.00
2023-04-04T21:29:40.710Z,1.00
2023-04-04T21:32:31.819Z,1.00
2023-04-04T21:35:46.687Z,1.00
2023-04-04T21:38:37.152Z,1.00
2023-04-04T21:41:27.153Z,1.00
2023-04-04T21:44:15.851Z,1.00
2023-04-04T21:47:04.636Z,1.00
2023-04-04T21:49:53.412Z,1.00
2023-04-04T21:52:42.333Z,1.00
2023-04-04T21:55:32.589Z,1.00
2023-04-04T21:58:21.359Z,1.00
2023-04-04T22:01:10.532Z,1.00
2023-04-04T22:03:59.604Z,1.00
2023-04-04T22:06:48.318Z,1.00
2023-04-04T22:09:38.725Z,1.00
2023-04-04T22:12:28.866Z,1.00
2023-04-04T22:15:18.797Z,1.00
2023-04-04T22:18:14.902Z,1.00
2023-04-04T22:21:04.654Z,1.00
2023-04-04T22:23:54.063Z,1.00
2023-04-04T22:26:42.779Z,1.00
2023-04-04T22:29:32.990Z,1.00
2023-04-04T22:32:21.743Z,1.00
2023-04-04T22:35:11.211Z,1.00
2023-04-04T22:38:01.035Z,1.00
2023-04-04T22:40:49.812Z,1.00
2023-04-04T22:43:38.578Z,1.00
2023-04-04T22:46:30.075Z,1.00
2023-04-04T22:49:19.115Z,1.00
2023-04-04T22:52:11.248Z,1.00
2023-04-04T22:55:00.422Z,1.00
2023-04-04T22:57:49.223Z,1.00
2023-04-04T23:00:38.125Z,1.00
2023-04-04T23:03:28.449Z,1.00
2023-04-04T23:06:19.809Z,1.00
2023-04-04T23:09:09.103Z,1.00
2023-04-04T23:11:58.054Z,1.00
2023-04-04T23:14:47.422Z,1.00
2023-04-04T23:17:38.915Z,1.00
2023-04-04T23:20:31.238Z,1.00
2023-04-04T23:23:20.041Z,1.00
2023-04-04T23:26:08.847Z,1.00
2023-04-04T23:28:57.711Z,1.00
2023-04-04T23:31:46.777Z,1.00
2023-04-04T23:34:35.925Z,1.00
2023-04-04T23:37:26.380Z,1.00
2023-04-04T23:40:15.150Z,1.00
2023-04-04T23:43:04.085Z,1.00
2023-04-04T23:45:53.509Z,1.00
2023-04-04T23:48:42.505Z,1.00
2023-04-04T23:51:38.270Z,1.00
2023-04-04T23:54:28.574Z,1.00
2023-04-04T23:57:17.352Z,1.00
